createdAt,value
2022-08-05T00:00:17.398Z,22.72
2022-08-05T00:02:51.070Z,22.47
2022-08-05T00:06:02.959Z,22.39
2022-08-05T00:08:34.727Z,22.35
2022-08-05T00:11:00.979Z,22.33
2022-08-05T00:13:38.016Z,22.19
2022-08-05T00:16:08.548Z,22.14
2022-08-05T00:18:36.362Z,22.19
2022-08-05T00:21:06.751Z,22.17
2022-08-05T00:23:45.700Z,22.01
2022-08-05T00:26:16.452Z,21.99
2022-08-05T00:28:44.009Z,22.03
2022-08-05T00:31:12.916Z,22.05
2022-08-05T00:34:54.614Z,22.02
2022-08-05T00:37:11.940Z,22.01
2022-08-05T00:39:13.956Z,21.87
2022-08-05T00:41:46.777Z,21.77
2022-08-05T00:44:19.076Z,21.70
2022-08-05T00:46:47.606Z,21.67
2022-08-05T00:49:20.983Z,21.64
2022-08-05T00:51:51.400Z,21.59
2022-08-05T00:54:18.933Z,21.69
2022-08-05T00:56:51.447Z,21.73
2022-08-05T00:59:18.553Z,21.78
2022-08-05T01:01:48.710Z,21.54
2022-08-05T01:04:16.160Z,21.21
2022-08-05T01:06:48.826Z,21.00
2022-08-05T01:09:20.294Z,21.00
2022-08-05T01:11:53.762Z,21.09
2022-08-05T01:14:28.081Z,21.12
2022-08-05T01:17:16.237Z,21.19
2022-08-05T01:20:01.880Z,21.23
2022-08-05T01:22:47.985Z,21.15
2022-08-05T01:25:39.686Z,21.16
2022-08-05T01:28:18.409Z,21.07
2022-08-05T01:30:57.381Z,21.10
2022-08-05T01:33:28.371Z,21.11
2022-08-05T01:36:12.843Z,21.01
2022-08-05T01:38:45.194Z,20.93
2022-08-05T01:41:14.975Z,20.90
2022-08-05T01:43:43.169Z,20.97
2022-08-05T01:46:16.378Z,20.83
2022-08-05T01:48:45.092Z,20.94
2022-08-05T01:51:18.432Z,21.00
2022-08-05T01:53:57.857Z,20.89
2022-08-05T01:58:09.705Z,20.94
2022-08-05T01:59:21.989Z,20.99
2022-08-05T02:01:50.109Z,21.13
2022-08-05T02:04:20.117Z,21.13
2022-08-05T02:06:48.161Z,21.06
2022-08-05T02:09:16.467Z,20.93
2022-08-05T02:12:10.051Z,20.77
2022-08-05T02:14:48.107Z,20.66
2022-08-05T02:18:28.107Z,20.65
2022-08-05T02:20:20.762Z,20.68
2022-08-05T02:22:56.532Z,20.58
2022-08-05T02:25:33.100Z,20.58
2022-08-05T02:28:08.890Z,20.57
2022-08-05T02:30:51.723Z,20.56
2022-08-05T02:33:24.378Z,20.52
2022-08-05T02:36:03.787Z,20.48
2022-08-05T02:38:35.203Z,20.40
2022-08-05T02:41:14.459Z,20.41
2022-08-05T02:44:02.616Z,20.33
2022-08-05T02:46:34.776Z,20.26
2022-08-05T02:49:02.150Z,20.28
2022-08-05T02:52:02.932Z,20.20
2022-08-05T02:54:35.580Z,20.09
2022-08-05T02:57:10.182Z,20.06
2022-08-05T02:59:54.490Z,20.08
2022-08-05T03:02:27.550Z,20.08
2022-08-05T03:04:55.547Z,19.94
2022-08-05T03:07:56.607Z,19.89
2022-08-05T03:10:10.764Z,19.90
2022-08-05T03:12:40.417Z,19.92
2022-08-05T03:15:10.023Z,19.88
2022-08-05T03:17:41.732Z,19.76
2022-08-05T03:20:12.007Z,19.68
2022-08-05T03:22:43.961Z,19.65
2022-08-05T03:25:32.859Z,19.66
2022-08-05T03:28:02.102Z,19.74
2022-08-05T03:30:34.241Z,19.83
2022-08-05T03:33:07.232Z,19.74
2022-08-05T03:35:40.995Z,19.72
2022-08-05T03:38:12.750Z,19.69
2022-08-05T03:40:47.287Z,19.79
2022-08-05T03:44:08.996Z,19.76
2022-08-05T03:46:04.937Z,19.72
2022-08-05T03:48:35.671Z,19.62
2022-08-05T03:52:49.325Z,19.60
2022-08-05T03:55:51.304Z,19.52
2022-08-05T03:57:41.500Z,19.59
2022-08-05T04:00:15.524Z,19.66
2022-08-05T04:02:58.019Z,19.73
2022-08-05T04:05:33.753Z,19.81
2022-08-05T04:08:02.843Z,19.90
2022-08-05T04:10:37.601Z,19.92
2022-08-05T04:13:06.567Z,19.99
2022-08-05T04:15:36.126Z,20.08
2022-08-05T04:18:07.022Z,20.08
2022-08-05T04:20:34.693Z,20.04
2022-08-05T04:23:01.631Z,19.96
2022-08-05T04:25:56.789Z,19.99
2022-08-05T04:28:15.113Z,19.87
2022-08-05T04:30:44.606Z,19.75
2022-08-05T04:33:12.811Z,19.83
2022-08-05T04:36:15.865Z,19.67
2022-08-05T04:38:39.778Z,19.64
2022-08-05T04:41:09.492Z,19.56
2022-08-05T04:43:38.018Z,19.56
2022-08-05T04:46:13.414Z,19.52
2022-08-05T04:48:54.660Z,19.47
2022-08-05T04:51:21.331Z,19.45
2022-08-05T04:53:49.891Z,19.51
2022-08-05T04:56:34.488Z,19.53
2022-08-05T04:59:22.141Z,19.53
2022-08-05T05:02:34.979Z,19.50
2022-08-05T05:04:38.450Z,19.54
2022-08-05T05:07:11.051Z,19.51
2022-08-05T05:09:38.019Z,19.53
2022-08-05T05:12:06.324Z,19.53
2022-08-05T05:14:36.288Z,19.55
2022-08-05T05:17:03.260Z,19.60
2022-08-05T05:19:36.347Z,19.68
2022-08-05T05:22:24.646Z,19.84
2022-08-05T05:24:59.871Z,19.93
2022-08-05T05:27:41.294Z,20.09
2022-08-05T05:30:15.410Z,20.39
2022-08-05T05:32:49.239Z,20.31
2022-08-05T05:35:19.915Z,20.39
2022-08-05T05:38:00.348Z,20.30
2022-08-05T05:40:30.116Z,20.37
2022-08-05T05:42:59.171Z,20.64
2022-08-05T05:45:26.351Z,20.68
2022-08-05T05:48:06.991Z,20.85
2022-08-05T05:50:41.335Z,21.01
2022-08-05T05:53:22.484Z,21.56
2022-08-05T05:55:51.744Z,21.69
2022-08-05T05:58:31.691Z,21.88
2022-08-05T06:01:02.457Z,22.03
2022-08-05T06:04:01.052Z,22.11
2022-08-05T06:06:31.409Z,22.28
2022-08-05T06:09:01.914Z,22.29
2022-08-05T06:11:31.212Z,22.25
2022-08-05T06:13:58.132Z,22.25
2022-08-05T06:16:36.702Z,22.87
2022-08-05T06:19:05.954Z,23.36
2022-08-05T06:21:36.625Z,23.24
2022-08-05T06:24:09.953Z,23.01
2022-08-05T06:26:38.267Z,23.24
2022-08-05T06:29:06.924Z,23.37
2022-08-05T06:31:52.358Z,23.46
2022-08-05T06:34:19.954Z,23.46
2022-08-05T06:36:57.333Z,23.60
2022-08-05T06:39:27.649Z,23.70
2022-08-05T06:41:57.386Z,24.00
2022-08-05T06:44:26.085Z,24.25
2022-08-05T06:46:52.870Z,24.15
2022-08-05T06:50:01.239Z,24.19
2022-08-05T06:52:08.187Z,24.45
2022-08-05T06:54:54.785Z,24.43
2022-08-05T06:57:57.444Z,24.77
2022-08-05T07:00:09.799Z,24.80
2022-08-05T07:02:43.910Z,25.27
2022-08-05T07:05:14.133Z,24.95
2022-08-05T07:07:43.778Z,24.83
2022-08-05T07:10:11.035Z,24.99
2022-08-05T07:12:41.742Z,25.14
2022-08-05T07:15:34.142Z,25.46
2022-08-05T07:18:05.716Z,26.11
2022-08-05T07:20:37.034Z,25.93
2022-08-05T07:23:05.291Z,26.17
2022-08-05T07:25:56.348Z,26.70
2022-08-05T07:28:19.836Z,26.87
2022-08-05T07:30:50.269Z,26.50
2022-08-05T07:33:19.657Z,27.03
2022-08-05T07:36:19.898Z,26.93
2022-08-05T07:38:47.583Z,27.22
2022-08-05T07:42:13.980Z,27.08
2022-08-05T07:44:14.245Z,27.28
2022-08-05T07:46:48.317Z,27.34
2022-08-05T07:49:15.918Z,27.48
2022-08-05T07:51:53.591Z,27.64
2022-08-05T07:54:26.741Z,27.97
2022-08-05T07:57:01.477Z,27.71
2022-08-05T07:59:41.619Z,27.73
2022-08-05T08:02:15.226Z,27.69
2022-08-05T08:04:45.002Z,28.21
2022-08-05T08:07:12.564Z,28.28
2022-08-05T08:09:39.240Z,28.46
2022-08-05T08:12:14.617Z,28.31
2022-08-05T08:14:47.295Z,28.57
2022-08-05T08:17:20.457Z,28.47
2022-08-05T08:20:21.697Z,28.55
2022-08-05T08:22:35.719Z,28.84
2022-08-05T08:25:03.952Z,28.56
2022-08-05T08:27:47.488Z,28.69
2022-08-05T08:30:27.677Z,28.60
2022-08-05T08:33:04.598Z,28.96
2022-08-05T08:35:41.427Z,29.35
2022-08-05T08:38:36.004Z,28.79
2022-08-05T08:41:07.502Z,28.59
2022-08-05T08:45:25.093Z,29.58
2022-08-05T08:46:24.047Z,29.67
2022-08-05T08:49:08.020Z,29.90
2022-08-05T08:52:03.742Z,29.65
2022-08-05T08:54:30.736Z,30.12
2022-08-05T08:56:59.819Z,30.12
2022-08-05T08:59:27.766Z,30.05
2022-08-05T09:02:01.716Z,29.96
2022-08-05T09:04:30.430Z,29.92
2022-08-05T09:06:58.482Z,30.14
2022-08-05T09:09:26.103Z,30.23
2022-08-05T09:12:14.406Z,30.39
2022-08-05T09:14:58.978Z,30.17
2022-08-05T09:17:42.673Z,30.62
2022-08-05T09:20:12.849Z,30.41
2022-08-05T09:23:08.963Z,30.34
2022-08-05T09:26:01.997Z,30.39
2022-08-05T09:28:31.895Z,30.86
2022-08-05T09:31:18.198Z,31.11
2022-08-05T09:33:56.272Z,31.25
2022-08-05T09:36:27.934Z,30.99
2022-08-05T09:39:18.488Z,31.15
2022-08-05T09:42:03.778Z,31.07
2022-08-05T09:44:51.227Z,31.35
2022-08-05T09:47:20.556Z,31.25
2022-08-05T09:50:01.408Z,31.32
2022-08-05T09:52:31.501Z,31.10
2022-08-05T09:55:55.258Z,31.56
2022-08-05T09:57:58.546Z,31.50
2022-08-05T10:00:25.959Z,31.90
2022-08-05T10:02:54.338Z,31.82
2022-08-05T10:05:24.322Z,31.77
2022-08-05T10:08:10.908Z,31.67
2022-08-05T10:10:50.264Z,31.55
2022-08-05T10:13:45.840Z,31.47
2022-08-05T10:16:37.867Z,32.20
2022-08-05T10:19:11.779Z,32.53
2022-08-05T10:21:40.361Z,31.83
2022-08-05T10:24:11.123Z,31.31
2022-08-05T10:26:51.654Z,31.47
2022-08-05T10:30:05.801Z,31.02
2022-08-05T10:32:54.909Z,31.74
2022-08-05T10:34:56.088Z,31.47
2022-08-05T10:37:44.692Z,31.86
2022-08-05T10:40:35.885Z,31.82
2022-08-05T10:43:35.871Z,32.01
2022-08-05T10:46:07.296Z,32.37
2022-08-05T10:48:56.680Z,31.96
2022-08-05T10:51:28.765Z,32.21
2022-08-05T10:54:01.858Z,32.49
2022-08-05T10:56:45.191Z,32.24
2022-08-05T11:00:04.184Z,32.40
2022-08-05T11:02:14.764Z,32.52
2022-08-05T11:04:58.069Z,32.43
2022-08-05T11:07:32.921Z,32.67
2022-08-05T11:10:22.141Z,32.08
2022-08-05T11:12:55.651Z,32.19
2022-08-05T11:15:44.025Z,32.32
2022-08-05T11:18:30.216Z,32.71
2022-08-05T11:20:59.295Z,32.91
2022-08-05T11:24:05.192Z,33.06
2022-08-05T11:26:37.881Z,33.43
2022-08-05T11:29:13.435Z,33.09
2022-08-05T11:31:58.907Z,33.45
2022-08-05T11:34:50.963Z,33.05
2022-08-05T11:38:30.971Z,33.37
2022-08-05T11:41:03.430Z,32.98
2022-08-05T11:44:05.723Z,32.85
2022-08-05T11:47:10.330Z,32.87
2022-08-05T11:49:28.044Z,33.11
2022-08-05T11:51:55.049Z,32.66
2022-08-05T11:54:32.682Z,32.67
2022-08-05T11:57:08.520Z,33.10
2022-08-05T11:59:50.379Z,33.40
2022-08-05T12:02:30.286Z,33.96
2022-08-05T12:05:01.002Z,33.27
2022-08-05T12:08:09.012Z,33.76
2022-08-05T12:10:22.749Z,33.89
2022-08-05T12:12:59.991Z,33.57
2022-08-05T12:15:38.128Z,33.80
2022-08-05T12:18:10.540Z,33.96
2022-08-05T12:20:37.953Z,34.38
2022-08-05T12:23:09.046Z,34.20
2022-08-05T12:25:53.347Z,33.67
2022-08-05T12:28:36.890Z,34.06
2022-08-05T12:31:05.516Z,33.85
2022-08-05T12:33:36.243Z,33.95
2022-08-05T12:36:07.118Z,34.27
2022-08-05T12:38:37.107Z,34.46
2022-08-05T12:41:12.859Z,34.46
2022-08-05T12:43:56.126Z,34.10
2022-08-05T12:46:29.542Z,34.19
2022-08-05T12:48:58.720Z,34.03
2022-08-05T12:52:12.323Z,33.75
2022-08-05T12:54:23.334Z,33.57
2022-08-05T12:56:56.478Z,33.91
2022-08-05T12:59:46.861Z,33.87
2022-08-05T13:02:22.417Z,33.85
2022-08-05T13:04:57.053Z,33.69
2022-08-05T13:07:56.129Z,33.56
2022-08-05T13:10:19.676Z,33.83
2022-08-05T13:12:51.247Z,33.92
2022-08-05T13:15:41.169Z,34.18
2022-08-05T13:18:19.526Z,34.16
2022-08-05T13:20:49.248Z,34.63
2022-08-05T13:23:17.993Z,34.26
2022-08-05T13:25:51.898Z,34.13
2022-08-05T13:28:27.249Z,33.97
2022-08-05T13:30:53.978Z,34.36
2022-08-05T13:34:23.298Z,34.34
2022-08-05T13:36:10.356Z,34.54
2022-08-05T13:38:42.401Z,34.07
2022-08-05T13:41:10.616Z,33.95
2022-08-05T13:43:44.650Z,33.95
2022-08-05T13:47:01.789Z,34.31
2022-08-05T13:49:10.335Z,34.66
2022-08-05T13:51:40.888Z,34.99
2022-08-05T13:54:13.630Z,34.39
2022-08-05T13:56:45.084Z,34.52
2022-08-05T13:59:21.060Z,34.83
2022-08-05T14:01:56.589Z,34.59
2022-08-05T14:04:33.427Z,35.29
2022-08-05T14:07:25.049Z,35.64
2022-08-05T14:09:46.807Z,35.43
2022-08-05T14:12:18.334Z,35.05
2022-08-05T14:14:59.191Z,35.39
2022-08-05T14:17:25.870Z,35.27
2022-08-05T14:19:59.631Z,35.01
2022-08-05T14:22:30.380Z,34.76
2022-08-05T14:25:01.668Z,34.55
2022-08-05T14:27:32.839Z,34.66
2022-08-05T14:29:59.486Z,35.06
2022-08-05T14:32:26.651Z,35.53
2022-08-05T14:34:54.728Z,35.65
2022-08-05T14:37:44.848Z,34.44
2022-08-05T14:40:14.089Z,34.20
2022-08-05T14:42:43.198Z,34.47
2022-08-05T14:45:10.351Z,35.01
2022-08-05T14:48:02.679Z,34.83
2022-08-05T14:50:25.300Z,35.41
2022-08-05T14:52:58.762Z,35.47
2022-08-05T14:55:38.560Z,35.21
2022-08-05T14:58:11.896Z,35.90
2022-08-05T15:00:59.479Z,35.14
2022-08-05T15:03:33.547Z,35.19
2022-08-05T15:06:06.859Z,35.29
2022-08-05T15:08:57.904Z,35.21
2022-08-05T15:11:51.629Z,35.31
2022-08-05T15:14:12.323Z,35.40
2022-08-05T15:16:59.063Z,35.65
2022-08-05T15:19:26.273Z,35.05
2022-08-05T15:21:52.910Z,35.33
2022-08-05T15:24:19.591Z,35.25
2022-08-05T15:26:46.738Z,35.37
2022-08-05T15:29:15.333Z,35.35
2022-08-05T15:31:42.016Z,35.73
2022-08-05T15:34:31.369Z,35.47
2022-08-05T15:36:57.650Z,35.41
2022-08-05T15:40:59.157Z,35.96
2022-08-05T15:42:55.125Z,36.25
2022-08-05T15:45:04.119Z,36.14
2022-08-05T15:47:32.956Z,36.23
2022-08-05T15:50:03.366Z,36.55
2022-08-05T15:52:54.268Z,35.65
2022-08-05T15:55:17.279Z,35.39
2022-08-05T15:57:45.036Z,36.36
2022-08-05T16:00:12.461Z,37.32
2022-08-05T16:02:44.005Z,37.01
2022-08-05T16:05:11.208Z,37.32
2022-08-05T16:07:38.601Z,38.02
2022-08-05T16:10:13.396Z,37.95
2022-08-05T16:12:41.390Z,37.73
2022-08-05T16:15:09.615Z,37.19
2022-08-05T16:17:36.423Z,36.02
2022-08-05T16:20:11.674Z,35.96
2022-08-05T16:22:38.622Z,35.69
2022-08-05T16:25:09.450Z,36.20
2022-08-05T16:27:47.342Z,36.22
2022-08-05T16:30:26.751Z,36.73
2022-08-05T16:32:55.745Z,36.93
2022-08-05T16:35:27.718Z,37.41
2022-08-05T16:38:15.554Z,37.60
2022-08-05T16:40:43.039Z,38.54
2022-08-05T16:43:19.001Z,39.07
2022-08-05T16:46:04.010Z,38.00
2022-08-05T16:48:35.057Z,37.41
2022-08-05T16:51:02.212Z,37.00
2022-08-05T16:53:32.512Z,36.55
2022-08-05T16:56:17.479Z,35.98
2022-08-05T16:58:44.283Z,35.37
2022-08-05T17:01:11.343Z,35.94
2022-08-05T17:03:38.016Z,35.22
2022-08-05T17:06:06.533Z,35.11
2022-08-05T17:08:51.881Z,34.83
2022-08-05T17:11:23.910Z,34.67
2022-08-05T17:14:00.468Z,34.79
2022-08-05T17:16:36.341Z,34.64
2022-08-05T17:19:07.552Z,34.32
2022-08-05T17:21:37.507Z,34.24
2022-08-05T17:24:19.368Z,34.22
2022-08-05T17:26:56.582Z,33.79
2022-08-05T17:29:33.682Z,33.64
2022-08-05T17:32:11.887Z,33.56
2022-08-05T17:34:47.906Z,33.24
2022-08-05T17:37:41.943Z,33.09
2022-08-05T17:40:10.111Z,32.99
2022-08-05T17:42:43.094Z,32.70
2022-08-05T17:45:21.100Z,32.53
2022-08-05T17:47:54.084Z,32.36
2022-08-05T17:50:28.077Z,32.06
2022-08-05T17:52:57.583Z,31.79
2022-08-05T17:55:27.404Z,31.57
2022-08-05T17:58:04.586Z,31.47
2022-08-05T18:00:33.852Z,31.31
2022-08-05T18:03:00.675Z,31.22
2022-08-05T18:05:28.187Z,31.14
2022-08-05T18:08:01.967Z,30.96
2022-08-05T18:10:28.689Z,30.93
2022-08-05T18:12:58.919Z,30.84
2022-08-05T18:15:25.580Z,30.74
2022-08-05T18:17:58.668Z,30.58
2022-08-05T18:20:31.701Z,30.49
2022-08-05T18:23:00.595Z,30.46
2022-08-05T18:25:38.873Z,30.37
2022-08-05T18:28:09.877Z,30.30
2022-08-05T18:30:39.183Z,30.12
2022-08-05T18:33:07.170Z,29.94
2022-08-05T18:36:00.009Z,29.75
2022-08-05T18:38:25.771Z,29.58
2022-08-05T18:41:56.221Z,29.55
2022-08-05T18:43:43.280Z,29.51
2022-08-05T18:46:19.989Z,29.43
2022-08-05T18:48:52.221Z,29.31
2022-08-05T18:52:02.925Z,29.19
2022-08-05T18:54:09.900Z,29.07
2022-08-05T18:56:36.673Z,28.95
2022-08-05T18:59:41.776Z,28.85
2022-08-05T19:01:58.263Z,28.80
2022-08-05T19:04:25.652Z,28.68
2022-08-05T19:06:53.455Z,28.61
2022-08-05T19:09:21.089Z,28.67
2022-08-05T19:11:59.917Z,28.62
2022-08-05T19:14:44.832Z,28.61
2022-08-05T19:17:16.925Z,28.60
2022-08-05T19:19:46.779Z,28.56
2022-08-05T19:22:17.226Z,28.59
2022-08-05T19:24:55.804Z,28.60
2022-08-05T19:27:27.914Z,28.44
2022-08-05T19:29:57.305Z,28.37
2022-08-05T19:32:26.192Z,28.24
2022-08-05T19:34:55.814Z,28.03
2022-08-05T19:37:47.053Z,28.09
2022-08-05T19:40:12.978Z,28.09
2022-08-05T19:43:00.937Z,28.00
2022-08-05T19:45:30.577Z,27.98
2022-08-05T19:48:03.992Z,27.93
2022-08-05T19:50:32.207Z,27.93
2022-08-05T19:53:09.276Z,27.96
2022-08-05T19:56:15.521Z,27.72
2022-08-05T19:58:28.670Z,27.52
2022-08-05T20:00:56.472Z,27.47
2022-08-05T20:03:26.087Z,27.51
2022-08-05T20:05:53.055Z,27.64
2022-08-05T20:08:20.823Z,27.57
2022-08-05T20:10:51.004Z,27.49
2022-08-05T20:13:18.350Z,27.50
2022-08-05T20:16:05.147Z,27.37
2022-08-05T20:18:32.837Z,27.38
2022-08-05T20:21:00.702Z,27.35
2022-08-05T20:23:39.780Z,27.21
2022-08-05T20:26:17.161Z,27.11
2022-08-05T20:28:49.568Z,27.19
2022-08-05T20:31:28.304Z,27.11
2022-08-05T20:34:04.226Z,27.13
2022-08-05T20:36:30.959Z,27.18
2022-08-05T20:38:59.505Z,27.11
2022-08-05T20:41:44.453Z,26.99
2022-08-05T20:44:18.520Z,26.75
2022-08-05T20:47:01.343Z,26.78
2022-08-05T20:49:28.166Z,26.76
2022-08-05T20:51:55.877Z,26.72
2022-08-05T20:54:24.958Z,26.61
2022-08-05T20:56:52.750Z,26.49
2022-08-05T20:59:26.754Z,26.38
2022-08-05T21:01:54.158Z,26.47
2022-08-05T21:04:26.702Z,26.48
2022-08-05T21:06:54.560Z,26.43
2022-08-05T21:09:22.465Z,26.42
2022-08-05T21:12:06.783Z,26.42
2022-08-05T21:14:35.794Z,26.32
2022-08-05T21:17:04.977Z,26.19
2022-08-05T21:19:46.767Z,26.36
2022-08-05T21:22:17.652Z,26.22
2022-08-05T21:24:51.525Z,26.22
2022-08-05T21:27:20.625Z,26.18
2022-08-05T21:29:52.499Z,26.16
2022-08-05T21:32:20.896Z,26.12
2022-08-05T21:35:08.421Z,26.05
2022-08-05T21:37:41.429Z,25.96
2022-08-05T21:40:13.619Z,25.91
2022-08-05T21:42:45.221Z,25.78
2022-08-05T21:45:13.133Z,25.71
2022-08-05T21:47:57.051Z,25.60
2022-08-05T21:50:26.454Z,25.42
2022-08-05T21:52:59.025Z,25.45
2022-08-05T21:56:01.631Z,25.41
2022-08-05T21:58:19.584Z,25.45
2022-08-05T22:00:51.415Z,25.43
2022-08-05T22:03:20.601Z,25.35
2022-08-05T22:06:05.452Z,25.18
2022-08-05T22:08:32.646Z,25.18
2022-08-05T22:10:59.276Z,25.15
2022-08-05T22:14:05.719Z,25.10
2022-08-05T22:16:39.440Z,25.09
2022-08-05T22:18:59.270Z,25.09
2022-08-05T22:21:25.948Z,25.02
2022-08-05T22:24:02.432Z,24.90
2022-08-05T22:26:30.256Z,24.81
2022-08-05T22:28:57.045Z,24.74
2022-08-05T22:31:24.974Z,24.72
2022-08-05T22:34:00.751Z,24.75
2022-08-05T22:36:28.283Z,24.69
2022-08-05T22:38:56.422Z,24.68
2022-08-05T22:42:04.282Z,24.64
2022-08-05T22:44:12.117Z,24.49
2022-08-05T22:46:40.699Z,24.51
2022-08-05T22:49:23.407Z,24.28
2022-08-05T22:52:05.527Z,24.24
2022-08-05T22:54:36.516Z,24.11
2022-08-05T22:57:05.639Z,24.00
2022-08-05T22:59:44.157Z,24.15
2022-08-05T23:02:16.661Z,24.09
2022-08-05T23:04:51.648Z,24.15
2022-08-05T23:07:22.237Z,24.06
2022-08-05T23:09:54.665Z,24.14
2022-08-05T23:12:29.425Z,24.10
2022-08-05T23:15:01.290Z,24.15
2022-08-05T23:17:32.768Z,24.07
2022-08-05T23:20:02.324Z,23.98
2022-08-05T23:22:30.966Z,23.95
2022-08-05T23:24:57.876Z,23.91
2022-08-05T23:27:28.763Z,23.89
2022-08-05T23:29:58.317Z,23.82
2022-08-05T23:32:26.925Z,23.76
2022-08-05T23:34:53.918Z,23.93
2022-08-05T23:37:20.537Z,23.75
2022-08-05T23:39:53.701Z,23.71
2022-08-05T23:42:23.484Z,23.38
2022-08-05T23:44:56.364Z,23.16
2022-08-05T23:47:24.990Z,23.18
2022-08-05T23:49:56.432Z,23.30
2022-08-05T23:52:25.242Z,23.27
2022-08-05T23:54:53.851Z,23.41
2022-08-05T23:57:20.539Z,23.49
